Página principal
METAR-TAF:

METAR-TAF

Aeroportos :

Valladolid, Espanha

latitude: 41-43N, longitude: 004-51W, altura: 849 m

Observação actual do tempo

O boletim foi feito há 21 minutos, às 06:00 UTC
Vento calmo
Temperatura 7°C
Humidade 87%
Pressão 1022 hPa
Visibilidade 10 km ou mais
sem nuvens abaixo de 1500 metros e sem cumulonimbus

METAR: LEVD 250600Z 00000KT CAVOK 07/05 Q1022

Hora: 08:21 (06:21 UTC)

Previsão

O boletim foi feito há 4 horas e 21 minutos, às 02:00 UTC
Previsão válida de 25 às 03 UTC a 26 às 03 UTC
Vento 5 kt com direcção variável
Visibilidade 10 km ou mais
Poucas nuvensa uma altura de 3000 ft
Tornando-se
de 25 às 11 UTC a 25 às 13 UTC
Vento 10 kt de nor-nordeste

TAF: LEVD 250200Z 2503/2603 VRB05KT 9999 FEW030 TX21/2515Z TN02/2505Z BECMG 2511/2513 03010KT

Observações e previsões do tempo de mais de 4000 aeroportos (mensagens METAR e TAF).

As estações disponíveis são os pontos amarelos e vermelhos sobre o mapa.

Mova o rato sobre o mapa para ver o nome da estação.

Depois clique no ponto para visualizar as observações e previsões meteorológicas.

Para alterar o mapa : clique nos botões verdes com uma cruz preta para aumentar o zoom; no botão verde com uma pitada de zoom; ou nas setas verdes para mapas adjacentes.


METAR-TAF: